Time;durP1;ratioP1;P1;durP2;ratioP2;P2;SDS_P1;SDS_P2;PMS_P1;PMS_P2;Temp;Humidity;BMP_temperature;BMP_pressure;BME280_temperature;BME280_humidity;BME280_pressure;Samples;Min_cycle;Max_cycle;Signal;HPM_P1;HPM_P2
2021/05/17 00:01:06;;;;;;;13.52;4.65;;;;;;;;;;5016319;28;20527;-65
2021/05/17 00:03:33;;;;;;;9.82;4.18;;;;;;;;;;5019519;28;20473;-64
2021/05/17 00:05:59;;;;;;;14.05;4.38;;;;;;;;;;5016266;28;20038;-65
2021/05/17 00:08:25;;;;;;;10.68;4.25;;;;;;;;;;5025754;28;20064;-65
2021/05/17 00:10:51;;;;;;;10.50;4.00;;;;;;;;;;5028305;28;20477;-65
2021/05/17 00:13:18;;;;;;;16.20;4.88;;;;;;;;;;5025311;28;20387;-65
2021/05/17 00:15:44;;;;;;;13.43;5.18;;;;;;;;;;5021337;28;20022;-65
2021/05/17 00:18:11;;;;;;;16.50;5.07;;;;;;;;;;5024955;28;20531;-65
2021/05/17 00:20:37;;;;;;;11.90;5.47;;;;;;;;;;5022278;28;20042;-65
2021/05/17 00:23:03;;;;;;;13.82;5.57;;;;;;;;;;5007715;28;20030;-65
2021/05/17 00:25:29;;;;;;;14.07;5.50;;;;;;;;;;5022477;28;20040;-65
2021/05/17 00:27:56;;;;;;;13.77;5.47;;;;;;;;;;5021343;28;20939;-65
2021/05/17 00:30:24;;;;;;;14.30;4.97;;;;;;;;;;5017601;28;20033;-65
2021/05/17 00:32:50;;;;;;;12.00;5.22;;;;;;;;;;5019075;28;20036;-65
2021/05/17 00:35:18;;;;;;;12.10;4.88;;;;;;;;;;5016169;28;20532;-65
2021/05/17 00:37:44;;;;;;;11.95;4.80;;;;;;;;;;5010934;28;20029;-65
2021/05/17 00:40:11;;;;;;;14.80;5.88;;;;;;;;;;5023487;28;20037;-65
2021/05/17 00:42:38;;;;;;;15.02;5.55;;;;;;;;;;5013974;28;20033;-65
2021/05/17 00:45:06;;;;;;;12.73;5.13;;;;;;;;;;5023305;28;20029;-65
2021/05/17 00:47:37;;;;;;;11.23;4.75;;;;;;;;;;4996777;28;20030;-65
2021/05/17 00:50:03;;;;;;;14.23;5.28;;;;;;;;;;5021208;28;20503;-65
2021/05/17 00:52:30;;;;;;;12.52;4.80;;;;;;;;;;5023386;28;20030;-65
2021/05/17 00:54:56;;;;;;;10.32;4.93;;;;;;;;;;5023102;28;20408;-65
2021/05/17 00:57:23;;;;;;;12.43;4.68;;;;;;;;;;5023992;28;20029;-65
2021/05/17 00:59:49;;;;;;;13.82;5.15;;;;;;;;;;5026500;28;20037;-64
2021/05/17 01:02:15;;;;;;;10.15;4.40;;;;;;;;;;5022632;28;20029;-64
2021/05/17 01:04:41;;;;;;;11.43;4.28;;;;;;;;;;5026637;28;20484;-65
2021/05/17 01:07:08;;;;;;;10.30;3.80;;;;;;;;;;5030503;28;20033;-65
2021/05/17 01:09:35;;;;;;;10.27;3.75;;;;;;;;;;5024891;28;20029;-64
2021/05/17 01:12:01;;;;;;;8.18;3.55;;;;;;;;;;5023335;28;20109;-65
2021/05/17 01:14:27;;;;;;;8.90;3.30;;;;;;;;;;5023925;28;20071;-64
2021/05/17 01:16:54;;;;;;;7.78;2.80;;;;;;;;;;5030717;28;20028;-65
2021/05/17 01:19:33;;;;;;;7.95;3.03;;;;;;;;;;5012345;28;20112;-65
2021/05/17 01:22:22;;;;;;;6.57;2.60;;;;;;;;;;5008346;28;20111;-65
2021/05/17 01:24:48;;;;;;;6.70;2.65;;;;;;;;;;5016332;28;20473;-65
2021/05/17 01:27:14;;;;;;;6.30;2.55;;;;;;;;;;5022626;28;20377;-65
2021/05/17 01:29:41;;;;;;;6.78;2.30;;;;;;;;;;5026685;28;20120;-64
2021/05/17 01:32:08;;;;;;;7.68;2.63;;;;;;;;;;5025917;28;20040;-64
2021/05/17 01:34:35;;;;;;;9.07;2.42;;;;;;;;;;5025542;28;20049;-65
2021/05/17 01:37:01;;;;;;;5.95;2.05;;;;;;;;;;5026712;28;20029;-64
2021/05/17 01:39:28;;;;;;;6.30;2.30;;;;;;;;;;5022756;28;20036;-64
2021/05/17 01:41:54;;;;;;;5.97;2.25;;;;;;;;;;5020676;28;20030;-65
2021/05/17 01:44:24;;;;;;;7.78;2.40;;;;;;;;;;5020899;28;20034;-64
2021/05/17 01:46:51;;;;;;;7.03;2.53;;;;;;;;;;5020143;28;20033;-65
2021/05/17 01:49:21;;;;;;;8.10;2.60;;;;;;;;;;5030188;28;20458;-64
2021/05/17 01:51:49;;;;;;;7.40;2.70;;;;;;;;;;5024086;28;20640;-65
2021/05/17 01:54:16;;;;;;;8.20;2.40;;;;;;;;;;5027348;28;20033;-64
2021/05/17 01:56:42;;;;;;;6.70;2.25;;;;;;;;;;5023249;28;20033;-64
2021/05/17 01:59:08;;;;;;;6.28;2.33;;;;;;;;;;5024224;28;20040;-64
2021/05/17 02:01:35;;;;;;;5.68;2.20;;;;;;;;;;5021704;28;20029;-64
2021/05/17 02:04:01;;;;;;;6.55;2.60;;;;;;;;;;5024575;28;20027;-64
2021/05/17 02:06:27;;;;;;;7.60;2.42;;;;;;;;;;5016561;28;20038;-65
2021/05/17 02:08:53;;;;;;;7.00;2.30;;;;;;;;;;5031637;28;20044;-64
2021/05/17 02:11:20;;;;;;;6.32;2.47;;;;;;;;;;5030029;28;20033;-65
2021/05/17 02:13:46;;;;;;;6.65;2.50;;;;;;;;;;5017801;28;20018;-64
2021/05/17 02:16:13;;;;;;;7.80;2.97;;;;;;;;;;5016551;28;20124;-64
2021/05/17 02:18:41;;;;;;;7.35;2.80;;;;;;;;;;5017814;28;20037;-64
2021/05/17 02:21:07;;;;;;;7.38;2.42;;;;;;;;;;5021139;28;20041;-65
2021/05/17 02:23:33;;;;;;;8.05;2.63;;;;;;;;;;5025035;28;20029;-64
2021/05/17 02:26:00;;;;;;;7.03;2.80;;;;;;;;;;5026669;28;20341;-64
2021/05/17 02:28:26;;;;;;;6.25;2.22;;;;;;;;;;5017997;28;20025;-65
2021/05/17 02:30:53;;;;;;;11.52;3.13;;;;;;;;;;5007096;28;20069;-64
2021/05/17 02:33:19;;;;;;;7.53;2.55;;;;;;;;;;5022902;28;20061;-65
2021/05/17 02:35:45;;;;;;;9.57;3.00;;;;;;;;;;5021444;28;20391;-64
2021/05/17 02:38:12;;;;;;;7.90;3.30;;;;;;;;;;5014353;28;20029;-64
2021/05/17 02:40:40;;;;;;;8.77;3.40;;;;;;;;;;5024970;28;20123;-65
2021/05/17 02:43:07;;;;;;;9.55;3.30;;;;;;;;;;5018189;28;20030;-64
2021/05/17 02:45:34;;;;;;;9.38;3.40;;;;;;;;;;5020266;28;20029;-65
2021/05/17 02:48:01;;;;;;;9.05;3.95;;;;;;;;;;5029049;28;20086;-64
2021/05/17 02:50:31;;;;;;;8.63;3.80;;;;;;;;;;5028911;28;20030;-64
2021/05/17 02:52:57;;;;;;;;;;;;;;;;;;5029417;28;20567;-64
2021/05/17 02:55:28;;;;;;;10.45;3.45;;;;;;;;;;5023791;28;19917;-65
2021/05/17 02:57:59;;;;;;;10.73;3.78;;;;;;;;;;5028050;28;20022;-64
2021/05/17 03:00:26;;;;;;;15.27;4.43;;;;;;;;;;5024067;28;20113;-65
2021/05/17 03:03:04;;;;;;;9.05;3.85;;;;;;;;;;5022614;28;20026;-64
2021/05/17 03:05:34;;;;;;;9.48;3.53;;;;;;;;;;5023385;28;20040;-64
2021/05/17 03:08:02;;;;;;;8.98;3.50;;;;;;;;;;5019225;28;20029;-64
2021/05/17 03:10:29;;;;;;;11.18;3.92;;;;;;;;;;5025882;28;20029;-64
2021/05/17 03:13:01;;;;;;;9.27;3.60;;;;;;;;;;5019011;28;20087;-65
2021/05/17 03:15:28;;;;;;;8.68;3.80;;;;;;;;;;5006747;28;20481;-64
2021/05/17 03:17:55;;;;;;;10.20;4.25;;;;;;;;;;5024469;28;20323;-64
2021/05/17 03:20:21;;;;;;;10.57;4.13;;;;;;;;;;5024155;28;20037;-64
2021/05/17 03:22:51;;;;;;;9.25;3.90;;;;;;;;;;5023338;28;20637;-64
2021/05/17 03:25:18;;;;;;;10.73;4.80;;;;;;;;;;5011876;28;20099;-64
2021/05/17 03:27:44;;;;;;;11.32;4.45;;;;;;;;;;5023695;28;20021;-64
2021/05/17 03:30:10;;;;;;;10.82;4.53;;;;;;;;;;5013541;28;20504;-65
2021/05/17 03:32:36;;;;;;;10.25;4.72;;;;;;;;;;5018211;28;20025;-65
2021/05/17 03:35:02;;;;;;;11.70;4.50;;;;;;;;;;4993667;28;20109;-65
2021/05/17 03:37:28;;;;;;;11.02;4.72;;;;;;;;;;5016647;28;20374;-65
2021/05/17 03:39:54;;;;;;;12.10;5.40;;;;;;;;;;5020469;28;20127;-65
2021/05/17 03:42:21;;;;;;;11.18;5.15;;;;;;;;;;5024229;28;20094;-65
2021/05/17 03:44:47;;;;;;;13.27;5.10;;;;;;;;;;5026194;28;20474;-64
2021/05/17 03:47:13;;;;;;;12.80;5.32;;;;;;;;;;5027956;28;20473;-65
2021/05/17 03:49:39;;;;;;;14.05;6.10;;;;;;;;;;5029003;28;20037;-64
2021/05/17 03:52:05;;;;;;;11.77;5.13;;;;;;;;;;5010025;28;20075;-65
2021/05/17 03:54:32;;;;;;;11.38;5.18;;;;;;;;;;5023533;28;20084;-65
2021/05/17 03:56:58;;;;;;;16.00;6.63;;;;;;;;;;5023122;28;20041;-65
2021/05/17 03:59:24;;;;;;;13.23;5.22;;;;;;;;;;5019321;28;20061;-64
2021/05/17 04:01:50;;;;;;;11.80;5.40;;;;;;;;;;5024283;28;20041;-64
2021/05/17 04:04:20;;;;;;;9.63;4.40;;;;;;;;;;5027250;28;20390;-64
2021/05/17 04:06:56;;;;;;;11.32;4.28;;;;;;;;;;5022787;28;20050;-64
2021/05/17 04:14:54;;;;;;;11.95;4.63;;;;;;;;;;5009654;28;20112;-64
2021/05/17 04:17:20;;;;;;;7.70;3.20;;;;;;;;;;5022062;28;20057;-64
2021/05/17 04:19:46;;;;;;;11.52;3.88;;;;;;;;;;5019660;28;20077;-65
2021/05/17 04:22:12;;;;;;;13.20;4.40;;;;;;;;;;5022090;28;20029;-65
2021/05/17 04:24:38;;;;;;;10.93;4.68;;;;;;;;;;5010628;28;20025;-64
2021/05/17 04:27:04;;;;;;;10.68;3.72;;;;;;;;;;5017439;28;20481;-65
2021/05/17 04:29:30;;;;;;;14.75;4.95;;;;;;;;;;5012941;28;20041;-64
2021/05/17 04:31:56;;;;;;;12.43;4.53;;;;;;;;;;5017636;28;20033;-64
2021/05/17 04:34:22;;;;;;;14.52;4.70;;;;;;;;;;5021118;28;20030;-65
2021/05/17 04:36:48;;;;;;;10.80;4.88;;;;;;;;;;5021749;28;20045;-65
2021/05/17 04:39:15;;;;;;;10.88;4.55;;;;;;;;;;5011531;28;20028;-65
2021/05/17 04:41:41;;;;;;;10.90;4.22;;;;;;;;;;5024381;28;20049;-65
2021/05/17 04:44:07;;;;;;;11.35;4.40;;;;;;;;;;5024397;28;20467;-62
2021/05/17 04:46:33;;;;;;;11.35;4.70;;;;;;;;;;5026917;28;20026;-65
2021/05/17 04:48:59;;;;;;;10.40;4.45;;;;;;;;;;5030404;28;20036;-65
2021/05/17 04:51:25;;;;;;;9.15;3.70;;;;;;;;;;5017733;28;20025;-65
2021/05/17 04:53:52;;;;;;;14.00;4.90;;;;;;;;;;5017877;28;20045;-65
2021/05/17 04:56:19;;;;;;;11.20;4.95;;;;;;;;;;5021740;28;20072;-65
2021/05/17 04:58:45;;;;;;;11.38;4.38;;;;;;;;;;5016959;28;20030;-64
2021/05/17 05:01:11;;;;;;;8.88;4.03;;;;;;;;;;5027194;28;20507;-65
2021/05/17 05:03:37;;;;;;;9.85;4.07;;;;;;;;;;5025344;28;20068;-64
2021/05/17 05:06:03;;;;;;;11.63;4.43;;;;;;;;;;5022283;28;20037;-65
2021/05/17 05:08:29;;;;;;;11.05;4.50;;;;;;;;;;5007401;28;20033;-64
2021/05/17 05:10:55;;;;;;;11.80;4.50;;;;;;;;;;5022559;28;20405;-64
2021/05/17 05:13:22;;;;;;;9.68;3.92;;;;;;;;;;5015535;28;20018;-64
2021/05/17 05:15:51;;;;;;;11.13;3.70;;;;;;;;;;5014298;28;20497;-64
2021/05/17 05:18:17;;;;;;;10.93;4.20;;;;;;;;;;5019499;28;20489;-64
2021/05/17 05:20:43;;;;;;;8.07;3.50;;;;;;;;;;5006370;28;20037;-64
2021/05/17 05:23:13;;;;;;;9.68;4.10;;;;;;;;;;5022291;28;20390;-63
2021/05/17 05:28:16;;;;;;;9.75;3.65;;;;;;;;;;5011729;28;20034;-63
2021/05/17 05:30:57;;;;;;;12.32;4.55;;;;;;;;;;5022136;28;20021;-63
2021/05/17 05:33:23;;;;;;;9.40;4.07;;;;;;;;;;5014108;28;20095;-65
2021/05/17 05:35:50;;;;;;;9.50;3.78;;;;;;;;;;5012242;28;20029;-64
2021/05/17 05:38:16;;;;;;;10.23;4.05;;;;;;;;;;5015598;28;20198;-63
2021/05/17 05:40:42;;;;;;;12.70;4.45;;;;;;;;;;5023272;28;20124;-63
2021/05/17 05:43:08;;;;;;;9.38;3.72;;;;;;;;;;5017386;28;20096;-63
2021/05/17 05:45:42;;;;;;;9.57;4.05;;;;;;;;;;5024907;28;20025;-64
2021/05/17 05:48:08;;;;;;;9.35;4.13;;;;;;;;;;5025285;28;20693;-66
2021/05/17 05:50:34;;;;;;;10.65;4.07;;;;;;;;;;5021308;28;20543;-64
2021/05/17 05:53:00;;;;;;;12.45;4.30;;;;;;;;;;5023428;28;20104;-64
2021/05/17 05:55:26;;;;;;;9.65;4.18;;;;;;;;;;5016423;28;20124;-64
2021/05/17 05:57:53;;;;;;;9.48;3.88;;;;;;;;;;5022213;28;20022;-64
2021/05/17 06:00:20;;;;;;;7.82;3.35;;;;;;;;;;5014210;28;20153;-62
2021/05/17 06:02:46;;;;;;;7.45;3.17;;;;;;;;;;5018686;28;20108;-63
2021/05/17 06:05:12;;;;;;;8.88;3.45;;;;;;;;;;5006125;28;20041;-63
2021/05/17 06:07:38;;;;;;;11.25;4.20;;;;;;;;;;5011106;28;20033;-65
2021/05/17 06:10:05;;;;;;;8.88;3.60;;;;;;;;;;5014247;28;20037;-64
2021/05/17 06:12:32;;;;;;;11.23;3.72;;;;;;;;;;5008572;28;20025;-64
2021/05/17 06:15:01;;;;;;;10.95;3.72;;;;;;;;;;5014915;28;20041;-64
2021/05/17 06:17:27;;;;;;;6.97;2.92;;;;;;;;;;5015271;28;20473;-63
2021/05/17 06:19:54;;;;;;;10.35;3.47;;;;;;;;;;5019697;28;20037;-62
2021/05/17 06:22:26;;;;;;;11.18;3.08;;;;;;;;;;5021136;28;20057;-66
2021/05/17 06:24:53;;;;;;;8.25;3.40;;;;;;;;;;5022892;28;20040;-66
2021/05/17 06:27:19;;;;;;;9.63;3.08;;;;;;;;;;5024359;28;20049;-63
2021/05/17 06:29:46;;;;;;;7.97;3.08;;;;;;;;;;5022572;28;20102;-63
2021/05/17 06:32:13;;;;;;;7.53;3.08;;;;;;;;;;5007103;28;20104;-64
2021/05/17 06:34:40;;;;;;;12.40;3.30;;;;;;;;;;5023945;28;20068;-64
2021/05/17 06:37:06;;;;;;;8.52;3.17;;;;;;;;;;5026484;28;20653;-64
2021/05/17 06:39:33;;;;;;;7.80;2.97;;;;;;;;;;5027326;28;20025;-65
2021/05/17 06:41:59;;;;;;;8.82;2.45;;;;;;;;;;5026802;28;20060;-62
2021/05/17 06:44:25;;;;;;;8.18;3.00;;;;;;;;;;5028378;28;20053;-65
2021/05/17 06:46:51;;;;;;;9.20;3.40;;;;;;;;;;5021190;28;20377;-65
2021/05/17 06:49:17;;;;;;;9.38;3.17;;;;;;;;;;5023849;28;20087;-65
2021/05/17 06:51:43;;;;;;;9.55;2.83;;;;;;;;;;5021924;28;20098;-64
2021/05/17 06:54:13;;;;;;;6.78;3.13;;;;;;;;;;5024484;28;20058;-62
2021/05/17 06:59:26;;;;;;;7.07;3.03;;;;;;;;;;5021625;28;20112;-65
2021/05/17 07:01:53;;;;;;;7.95;2.85;;;;;;;;;;5021559;28;20061;-65
2021/05/17 07:04:20;;;;;;;8.80;3.03;;;;;;;;;;5026999;28;20440;-65
2021/05/17 07:06:53;;;;;;;7.63;2.65;;;;;;;;;;5022060;28;20040;-64
2021/05/17 07:12:10;;;;;;;6.53;2.47;;;;;;;;;;5021101;28;20082;-64
2021/05/17 07:14:36;;;;;;;9.23;2.60;;;;;;;;;;5020397;28;20025;-64
2021/05/17 07:17:02;;;;;;;6.43;2.53;;;;;;;;;;5025095;28;20025;-65
2021/05/17 07:19:28;;;;;;;4.88;1.90;;;;;;;;;;5021016;28;20068;-64
2021/05/17 07:24:39;;;;;;;6.40;2.30;;;;;;;;;;5020302;28;20464;-64
2021/05/17 07:27:05;;;;;;;5.72;2.35;;;;;;;;;;5018990;28;20052;-65
2021/05/17 07:29:33;;;;;;;8.18;2.60;;;;;;;;;;5017496;28;20025;-64
2021/05/17 07:31:59;;;;;;;5.88;2.33;;;;;;;;;;5018845;28;20041;-65
2021/05/17 07:34:25;;;;;;;5.40;2.03;;;;;;;;;;5020918;28;20089;-64
2021/05/17 07:36:52;;;;;;;6.90;2.42;;;;;;;;;;5019486;28;20075;-64
2021/05/17 07:39:18;;;;;;;6.80;2.53;;;;;;;;;;5022848;28;20033;-64
2021/05/17 07:41:44;;;;;;;6.53;2.35;;;;;;;;;;5023634;28;20109;-64
2021/05/17 07:44:11;;;;;;;6.95;2.35;;;;;;;;;;5012947;28;21386;-64
2021/05/17 07:46:37;;;;;;;8.43;2.30;;;;;;;;;;5012385;28;20393;-64
2021/05/17 07:51:36;;;;;;;7.75;2.50;;;;;;;;;;5019346;28;20026;-64
2021/05/17 07:54:03;;;;;;;7.53;2.70;;;;;;;;;;5006430;28;20099;-64
2021/05/17 07:56:29;;;;;;;7.25;2.50;;;;;;;;;;5018880;28;20114;-64
2021/05/17 07:58:55;;;;;;;6.43;2.40;;;;;;;;;;5021492;28;20037;-64
2021/05/17 08:01:21;;;;;;;8.23;2.78;;;;;;;;;;5022534;28;20393;-63
2021/05/17 08:03:49;;;;;;;6.93;2.53;;;;;;;;;;5021536;28;20100;-64
2021/05/17 08:06:16;;;;;;;9.50;2.83;;;;;;;;;;5025385;28;20040;-64
2021/05/17 08:08:42;;;;;;;6.75;2.80;;;;;;;;;;5024975;28;20100;-64
2021/05/17 08:11:08;;;;;;;5.68;2.20;;;;;;;;;;5023158;28;20521;-64
2021/05/17 08:13:34;;;;;;;10.80;3.05;;;;;;;;;;5021472;28;20037;-64
2021/05/17 08:16:00;;;;;;;10.93;2.28;;;;;;;;;;5020819;28;20026;-64
2021/05/17 08:18:26;;;;;;;6.57;2.38;;;;;;;;;;5027261;28;20036;-64
2021/05/17 08:20:52;;;;;;;7.15;2.92;;;;;;;;;;5013679;28;20048;-63
2021/05/17 08:23:18;;;;;;;6.65;2.58;;;;;;;;;;5020076;28;20018;-64
2021/05/17 08:25:45;;;;;;;8.98;3.00;;;;;;;;;;5015085;28;20045;-63
2021/05/17 08:28:11;;;;;;;6.72;2.42;;;;;;;;;;5014078;28;20100;-63
2021/05/17 08:30:42;;;;;;;7.32;2.95;;;;;;;;;;5018074;28;20024;-64
2021/05/17 08:33:12;;;;;;;7.90;3.15;;;;;;;;;;5017416;28;20064;-63
2021/05/17 08:35:38;;;;;;;7.40;3.00;;;;;;;;;;5014357;28;20025;-65
2021/05/17 08:38:04;;;;;;;7.97;2.65;;;;;;;;;;5016713;28;20385;-63
2021/05/17 08:40:34;;;;;;;6.57;2.78;;;;;;;;;;5018295;28;20033;-64
2021/05/17 08:43:00;;;;;;;6.55;2.88;;;;;;;;;;5016830;28;20035;-64
2021/05/17 08:45:26;;;;;;;6.30;2.60;;;;;;;;;;5026642;28;20076;-64
2021/05/17 08:47:52;;;;;;;8.23;2.30;;;;;;;;;;5018792;28;20025;-64
2021/05/17 08:50:18;;;;;;;6.82;2.50;;;;;;;;;;5024743;28;20469;-64
2021/05/17 08:52:45;;;;;;;10.25;2.70;;;;;;;;;;5021293;28;20029;-64
2021/05/17 08:55:12;;;;;;;6.60;2.63;;;;;;;;;;5018922;28;20053;-65
2021/05/17 08:57:38;;;;;;;7.80;2.25;;;;;;;;;;5017085;28;20126;-64
2021/05/17 09:00:06;;;;;;;4.75;1.88;;;;;;;;;;5004600;28;20044;-64
2021/05/17 09:02:32;;;;;;;6.05;2.08;;;;;;;;;;5020309;28;20026;-64
2021/05/17 09:05:16;;;;;;;5.15;2.00;;;;;;;;;;5018431;28;20026;-64
2021/05/17 09:07:44;;;;;;;8.95;2.10;;;;;;;;;;5020511;28;20033;-63
2021/05/17 09:10:20;;;;;;;5.65;2.10;;;;;;;;;;5021897;28;20057;-64
2021/05/17 09:12:54;;;;;;;7.60;2.30;;;;;;;;;;5023241;28;20080;-64
2021/05/17 09:15:27;;;;;;;6.35;2.13;;;;;;;;;;5018752;28;20029;-64
2021/05/17 09:17:56;;;;;;;3.78;1.48;;;;;;;;;;5019694;28;20095;-64
2021/05/17 09:20:23;;;;;;;7.28;2.45;;;;;;;;;;5022574;28;20490;-65
2021/05/17 09:22:50;;;;;;;6.93;2.45;;;;;;;;;;5021305;28;20089;-64
2021/05/17 09:25:16;;;;;;;6.75;2.55;;;;;;;;;;5017202;28;20026;-64
2021/05/17 09:27:42;;;;;;;6.57;2.03;;;;;;;;;;5019546;28;20013;-64
2021/05/17 09:30:09;;;;;;;7.80;2.50;;;;;;;;;;5030051;28;20037;-63
2021/05/17 09:32:38;;;;;;;6.95;2.22;;;;;;;;;;5030360;28;20026;-63
2021/05/17 09:35:07;;;;;;;5.00;1.90;;;;;;;;;;5008883;28;20030;-62
2021/05/17 09:37:58;;;;;;;7.28;2.25;;;;;;;;;;5022982;28;20101;-63
2021/05/17 09:40:25;;;;;;;4.45;1.80;;;;;;;;;;5028778;28;20035;-63
2021/05/17 09:43:03;;;;;;;6.00;2.00;;;;;;;;;;5027221;28;20112;-63
2021/05/17 09:45:30;;;;;;;5.18;1.75;;;;;;;;;;5022318;28;20025;-63
2021/05/17 09:47:56;;;;;;;4.88;1.52;;;;;;;;;;5025386;28;20014;-63
2021/05/17 09:50:22;;;;;;;6.82;2.03;;;;;;;;;;5030052;28;20029;-63
2021/05/17 09:52:48;;;;;;;5.45;1.90;;;;;;;;;;5020225;28;20060;-63
2021/05/17 09:55:14;;;;;;;6.80;2.00;;;;;;;;;;5018458;28;20061;-65
2021/05/17 09:57:46;;;;;;;5.72;1.90;;;;;;;;;;5025544;28;20485;-64
2021/05/17 10:00:21;;;;;;;5.95;2.08;;;;;;;;;;5022192;28;20464;-64
2021/05/17 10:02:49;;;;;;;5.82;2.15;;;;;;;;;;5021184;28;20101;-64
2021/05/17 10:05:15;;;;;;;5.28;1.73;;;;;;;;;;5021091;28;20034;-64
2021/05/17 10:07:43;;;;;;;8.82;1.75;;;;;;;;;;5020234;28;20021;-65
2021/05/17 10:10:10;;;;;;;6.90;2.00;;;;;;;;;;5029101;28;20232;-64
2021/05/17 10:12:36;;;;;;;8.82;2.42;;;;;;;;;;5013379;28;20025;-64
2021/05/17 10:15:04;;;;;;;5.47;1.77;;;;;;;;;;5023533;28;20496;-64
2021/05/17 10:17:31;;;;;;;6.20;1.98;;;;;;;;;;5021679;28;20026;-64
2021/05/17 10:19:58;;;;;;;5.63;1.83;;;;;;;;;;5023798;28;20047;-64
2021/05/17 10:22:24;;;;;;;5.18;1.33;;;;;;;;;;5029897;28;20476;-64
2021/05/17 10:24:50;;;;;;;2.38;1.10;;;;;;;;;;5024418;28;20036;-64
2021/05/17 10:27:16;;;;;;;3.42;1.10;;;;;;;;;;5018775;28;20029;-64
2021/05/17 10:29:43;;;;;;;3.72;1.17;;;;;;;;;;5029018;28;20033;-65
2021/05/17 10:32:09;;;;;;;4.05;1.20;;;;;;;;;;5027640;28;20385;-64
2021/05/17 10:34:49;;;;;;;4.60;1.30;;;;;;;;;;5021203;28;20032;-64
2021/05/17 10:37:21;;;;;;;4.13;1.17;;;;;;;;;;5025818;28;20367;-63
2021/05/17 10:39:53;;;;;;;3.78;1.38;;;;;;;;;;5023871;28;20572;-67
2021/05/17 10:42:33;;;;;;;4.93;1.60;;;;;;;;;;5021199;28;20033;-64
2021/05/17 10:47:44;;;;;;;6.18;1.48;;;;;;;;;;5020978;28;20393;-64
2021/05/17 10:50:15;;;;;;;2.50;1.10;;;;;;;;;;5010637;28;20505;-64
2021/05/17 10:52:42;;;;;;;3.08;1.10;;;;;;;;;;5022519;28;20132;-64
2021/05/17 10:55:13;;;;;;;3.72;1.20;;;;;;;;;;5024243;28;20076;-65
2021/05/17 11:00:32;;;;;;;4.25;1.38;;;;;;;;;;5031040;28;20055;-63
2021/05/17 11:03:08;;;;;;;2.80;1.23;;;;;;;;;;5019187;28;20055;-64
2021/05/17 11:05:34;;;;;;;3.38;1.33;;;;;;;;;;5023681;28;20042;-63
2021/05/17 11:08:05;;;;;;;3.40;1.25;;;;;;;;;;5019679;28;20030;-63
2021/05/17 11:10:38;;;;;;;3.65;1.42;;;;;;;;;;5021313;28;20038;-64
2021/05/17 11:13:12;;;;;;;3.10;1.25;;;;;;;;;;5021394;28;20294;-63
2021/05/17 11:15:40;;;;;;;4.35;1.50;;;;;;;;;;5025393;28;20118;-64
2021/05/17 11:18:07;;;;;;;5.97;1.60;;;;;;;;;;5025653;28;20040;-64
2021/05/17 11:20:39;;;;;;;4.55;1.40;;;;;;;;;;5020725;28;20112;-64
2021/05/17 11:23:06;;;;;;;3.83;1.50;;;;;;;;;;5018609;28;20026;-64
2021/05/17 11:25:44;;;;;;;3.63;1.30;;;;;;;;;;5025691;28;20056;-64
2021/05/17 11:28:10;;;;;;;3.85;1.30;;;;;;;;;;5022185;28;20101;-64
2021/05/17 11:30:38;;;;;;;5.80;1.60;;;;;;;;;;5026732;28;20031;-64
2021/05/17 11:33:17;;;;;;;4.40;1.80;;;;;;;;;;5024093;28;20131;-63
2021/05/17 11:36:14;;;;;;;4.85;1.63;;;;;;;;;;5024332;28;20033;-62
2021/05/17 11:39:18;;;;;;;3.35;1.55;;;;;;;;;;5022709;28;20394;-62
2021/05/17 11:41:50;;;;;;;4.05;1.55;;;;;;;;;;4945581;29;20154;-62
2021/05/17 11:44:34;;;;;;;4.95;1.98;;;;;;;;;;5012222;28;20045;-63
2021/05/17 11:47:00;;;;;;;4.13;1.85;;;;;;;;;;5024176;28;20029;-64
2021/05/17 11:49:28;;;;;;;4.00;1.42;;;;;;;;;;5018215;28;20022;-63
2021/05/17 11:51:55;;;;;;;4.20;1.30;;;;;;;;;;5016129;28;20018;-63
2021/05/17 11:54:22;;;;;;;4.05;1.30;;;;;;;;;;5016819;28;20491;-63
2021/05/17 11:56:50;;;;;;;3.35;1.13;;;;;;;;;;5021273;28;20022;-63
2021/05/17 11:59:17;;;;;;;4.28;1.90;;;;;;;;;;5022194;28;20040;-63
2021/05/17 12:01:44;;;;;;;3.80;1.50;;;;;;;;;;5019141;28;20026;-63
2021/05/17 12:04:14;;;;;;;3.03;1.27;;;;;;;;;;5008574;28;20041;-63
2021/05/17 12:06:44;;;;;;;5.32;1.20;;;;;;;;;;5016256;28;20034;-63
2021/05/17 12:09:10;;;;;;;4.03;1.40;;;;;;;;;;5021626;28;20642;-63
2021/05/17 12:11:50;;;;;;;4.88;1.42;;;;;;;;;;5022746;28;20079;-63
2021/05/17 12:14:16;;;;;;;4.23;1.40;;;;;;;;;;5020726;28;20056;-62
2021/05/17 12:16:42;;;;;;;4.35;1.20;;;;;;;;;;5024256;28;20025;-63
2021/05/17 12:19:08;;;;;;;3.00;1.30;;;;;;;;;;5014686;28;20037;-63
2021/05/17 12:21:35;;;;;;;2.65;1.30;;;;;;;;;;5025555;28;20121;-62
2021/05/17 12:24:01;;;;;;;6.75;1.35;;;;;;;;;;5019276;28;20022;-63
2021/05/17 12:26:47;;;;;;;3.55;1.40;;;;;;;;;;5020334;28;20072;-63
2021/05/17 12:29:13;;;;;;;3.97;1.40;;;;;;;;;;5018428;28;20040;-63
2021/05/17 12:31:39;;;;;;;3.25;1.25;;;;;;;;;;5026062;28;20087;-63
2021/05/17 12:34:08;;;;;;;4.47;1.30;;;;;;;;;;5020513;28;20087;-63
2021/05/17 12:36:34;;;;;;;2.80;1.20;;;;;;;;;;5023258;28;20030;-63
2021/05/17 12:39:01;;;;;;;3.50;1.20;;;;;;;;;;5021791;28;20448;-63
2021/05/17 12:41:37;;;;;;;5.68;1.35;;;;;;;;;;5022708;28;20068;-63
2021/05/17 12:44:03;;;;;;;5.32;1.55;;;;;;;;;;5022445;28;20038;-63
2021/05/17 12:46:30;;;;;;;5.50;1.40;;;;;;;;;;5020151;28;20083;-63
2021/05/17 12:48:57;;;;;;;3.60;1.50;;;;;;;;;;5022718;28;20017;-63
2021/05/17 12:51:31;;;;;;;4.95;1.50;;;;;;;;;;5024088;28;20669;-63
2021/05/17 12:54:19;;;;;;;3.92;1.30;;;;;;;;;;5019980;28;20042;-64
2021/05/17 12:56:45;;;;;;;2.85;1.20;;;;;;;;;;5022834;28;20492;-64
2021/05/17 12:59:11;;;;;;;2.83;1.20;;;;;;;;;;5023952;28;20399;-64
2021/05/17 13:01:38;;;;;;;4.28;1.10;;;;;;;;;;5025990;28;20473;-64
2021/05/17 13:04:04;;;;;;;4.50;1.38;;;;;;;;;;5030321;28;20028;-63
2021/05/17 13:06:31;;;;;;;2.50;0.88;;;;;;;;;;5031861;28;20037;-63
2021/05/17 13:09:01;;;;;;;1.80;0.82;;;;;;;;;;5026850;28;20041;-63
2021/05/17 13:11:35;;;;;;;3.33;1.00;;;;;;;;;;5009736;28;20428;-63
2021/05/17 13:14:01;;;;;;;2.38;1.00;;;;;;;;;;5025224;28;20136;-63
2021/05/17 13:16:29;;;;;;;3.55;1.10;;;;;;;;;;5028883;28;20028;-63
2021/05/17 13:19:22;;;;;;;3.33;1.20;;;;;;;;;;5028804;28;20056;-63
2021/05/17 13:30:25;;;;;;;4.70;1.90;;;;;;;;;;5027721;28;20563;-63
2021/05/17 13:32:51;;;;;;;5.35;1.75;;;;;;;;;;5027725;28;20199;-64
2021/05/17 13:35:18;;;;;;;3.63;1.45;;;;;;;;;;5027482;28;20151;-63
2021/05/17 13:37:44;;;;;;;5.28;1.95;;;;;;;;;;5029413;28;20097;-64
2021/05/17 13:40:11;;;;;;;4.05;1.35;;;;;;;;;;5029096;28;20056;-64
2021/05/17 13:42:38;;;;;;;5.57;2.00;;;;;;;;;;5032169;28;20028;-64
2021/05/17 13:45:05;;;;;;;5.32;1.90;;;;;;;;;;5030674;28;20033;-63
2021/05/17 13:47:31;;;;;;;5.80;2.38;;;;;;;;;;5028142;28;20557;-64
2021/05/17 13:49:57;;;;;;;6.03;2.30;;;;;;;;;;5024634;28;20029;-64
2021/05/17 13:52:23;;;;;;;6.75;2.33;;;;;;;;;;5021925;28;20250;-64
2021/05/17 13:54:49;;;;;;;5.93;2.30;;;;;;;;;;5024806;28;20120;-64
2021/05/17 13:57:15;;;;;;;7.10;2.42;;;;;;;;;;5027842;28;20021;-64
2021/05/17 13:59:43;;;;;;;4.35;1.77;;;;;;;;;;5028318;28;20029;-64
2021/05/17 14:02:09;;;;;;;5.40;1.88;;;;;;;;;;5009831;28;20291;-65
2021/05/17 14:04:35;;;;;;;5.68;2.00;;;;;;;;;;5011534;28;20476;-64
2021/05/17 14:07:01;;;;;;;7.90;2.05;;;;;;;;;;5028238;28;20072;-64
2021/05/17 14:09:27;;;;;;;5.50;2.13;;;;;;;;;;5027457;28;20059;-64
2021/05/17 14:11:55;;;;;;;5.55;2.08;;;;;;;;;;5027367;28;20520;-64
2021/05/17 14:14:21;;;;;;;5.60;2.22;;;;;;;;;;5024182;28;20465;-64
2021/05/17 14:16:51;;;;;;;5.28;2.33;;;;;;;;;;5025143;28;20032;-64
2021/05/17 14:19:17;;;;;;;4.97;1.88;;;;;;;;;;5027262;28;20024;-64
2021/05/17 14:21:44;;;;;;;6.45;2.65;;;;;;;;;;5029202;28;20045;-64
2021/05/17 14:24:10;;;;;;;7.07;2.45;;;;;;;;;;5023349;28;20025;-64
2021/05/17 14:26:36;;;;;;;5.47;2.40;;;;;;;;;;5024059;28;20030;-64
2021/05/17 14:29:02;;;;;;;8.15;3.22;;;;;;;;;;5022966;28;20083;-64
2021/05/17 14:31:30;;;;;;;6.53;2.85;;;;;;;;;;5023213;28;20388;-64
2021/05/17 14:34:01;;;;;;;6.30;2.53;;;;;;;;;;5025742;28;20021;-64
2021/05/17 14:36:28;;;;;;;6.72;2.90;;;;;;;;;;5027640;28;20414;-64
2021/05/17 14:38:54;;;;;;;6.57;2.70;;;;;;;;;;5018140;28;20024;-63
2021/05/17 14:41:20;;;;;;;6.30;2.63;;;;;;;;;;5028614;28;20068;-64
2021/05/17 14:43:46;;;;;;;7.15;2.83;;;;;;;;;;5026409;28;20018;-64
2021/05/17 14:46:13;;;;;;;8.07;2.92;;;;;;;;;;5021038;28;20033;-64
2021/05/17 14:48:39;;;;;;;7.53;3.35;;;;;;;;;;5018311;28;20026;-64
2021/05/17 14:51:05;;;;;;;7.75;3.35;;;;;;;;;;5017957;28;20712;-64
2021/05/17 14:53:31;;;;;;;10.35;3.30;;;;;;;;;;5017610;28;20026;-64
2021/05/17 14:55:57;;;;;;;8.93;3.35;;;;;;;;;;5016161;28;20461;-63
2021/05/17 14:58:23;;;;;;;7.40;3.50;;;;;;;;;;5016272;28;20049;-64
2021/05/17 15:00:49;;;;;;;9.13;3.15;;;;;;;;;;5021655;28;20041;-64
2021/05/17 15:03:16;;;;;;;7.72;3.78;;;;;;;;;;5022699;28;20046;-63
2021/05/17 15:05:42;;;;;;;8.13;2.90;;;;;;;;;;5019954;28;20030;-63
2021/05/17 15:08:09;;;;;;;9.27;4.07;;;;;;;;;;5020110;28;20563;-63
2021/05/17 15:10:35;;;;;;;9.02;3.78;;;;;;;;;;5015625;28;20065;-63
2021/05/17 15:13:01;;;;;;;6.35;3.00;;;;;;;;;;5022101;28;20029;-63
2021/05/17 15:15:28;;;;;;;7.78;3.28;;;;;;;;;;5025863;28;20064;-64
2021/05/17 15:17:55;;;;;;;8.30;3.95;;;;;;;;;;5024822;28;20032;-64